createdAt,value
2022-08-19T16:41:03.794Z,3.47
2022-08-19T16:43:34.925Z,3.95
2022-08-19T16:46:02.558Z,4.07
2022-08-19T16:48:31.330Z,3.90
2022-08-19T16:51:00.552Z,4.30
2022-08-19T16:53:29.128Z,3.88
2022-08-19T16:55:59.732Z,4.00
2022-08-19T16:58:29.664Z,4.13
2022-08-19T17:01:03.733Z,4.10
2022-08-19T17:03:36.524Z,3.80
2022-08-19T17:06:20.336Z,5.13
2022-08-19T17:08:50.318Z,4.60
2022-08-19T17:11:19.626Z,4.32
2022-08-19T17:13:48.433Z,4.30
2022-08-19T17:16:18.150Z,4.90
2022-08-19T17:18:45.943Z,3.75
2022-08-19T17:21:13.311Z,4.47
2022-08-19T17:23:43.709Z,4.70
2022-08-19T17:26:18.035Z,4.85
2022-08-19T17:28:49.839Z,5.00
2022-08-19T17:31:21.650Z,6.03
2022-08-19T17:33:49.884Z,8.57
2022-08-19T17:36:19.291Z,5.50
2022-08-19T17:38:46.673Z,4.57
2022-08-19T17:41:14.016Z,5.72
2022-08-19T17:43:43.929Z,4.90
2022-08-19T17:46:19.570Z,4.67
2022-08-19T17:48:52.498Z,4.75
2022-08-19T17:51:23.540Z,4.35
2022-08-19T17:53:53.327Z,4.07
2022-08-19T17:56:21.726Z,4.63
2022-08-19T17:59:00.775Z,8.57
2022-08-19T18:01:44.067Z,10.20
2022-08-19T18:04:18.835Z,9.20
2022-08-19T18:06:53.095Z,8.88
2022-08-19T18:09:41.878Z,10.85
2022-08-19T18:12:12.869Z,7.50
2022-08-19T18:14:41.394Z,8.90
2022-08-19T18:17:12.559Z,7.95
2022-08-19T18:22:30.779Z,8.10
2022-08-19T18:24:58.874Z,9.80
2022-08-19T18:27:27.892Z,9.48
2022-08-19T18:29:59.853Z,10.15
2022-08-19T18:32:38.800Z,7.95
2022-08-19T18:35:30.117Z,6.65
2022-08-19T18:38:21.408Z,5.13
2022-08-19T18:43:58.676Z,5.53
2022-08-19T18:46:44.946Z,5.30
2022-08-19T18:49:17.569Z,4.82
2022-08-19T18:51:44.879Z,4.90
2022-08-19T18:54:12.696Z,5.38
2022-08-19T18:56:43.868Z,5.82
2022-08-19T18:59:12.108Z,5.43
2022-08-19T19:01:46.811Z,5.53
2022-08-19T19:04:14.310Z,5.13
2022-08-19T19:06:42.714Z,5.43
2022-08-19T19:09:18.058Z,4.60
2022-08-19T19:11:50.327Z,4.78
2022-08-19T19:14:47.713Z,4.97
2022-08-19T19:17:14.491Z,4.95
2022-08-19T19:19:43.117Z,5.18
2022-08-19T19:22:13.248Z,5.00
2022-08-19T19:24:45.023Z,4.70
2022-08-19T19:27:14.992Z,5.65
2022-08-19T19:29:45.016Z,5.35
2022-08-19T19:32:25.645Z,5.88
2022-08-19T19:34:53.218Z,5.13
2022-08-19T19:37:20.499Z,5.18
2022-08-19T19:39:48.264Z,5.35
2022-08-19T19:42:21.331Z,5.18
2022-08-19T19:44:52.181Z,5.15
2022-08-19T19:47:24.535Z,5.10
2022-08-19T19:50:13.156Z,5.22
2022-08-19T19:52:40.750Z,5.78
2022-08-19T19:55:09.720Z,5.75
2022-08-19T19:57:39.433Z,5.43
2022-08-19T20:00:09.426Z,5.65
2022-08-19T20:02:36.690Z,5.10
2022-08-19T20:05:04.411Z,5.45
2022-08-19T20:07:50.720Z,4.85
2022-08-19T20:10:18.272Z,5.55
2022-08-19T20:12:45.343Z,5.95
2022-08-19T20:15:13.209Z,5.78
2022-08-19T20:17:42.497Z,5.53
2022-08-19T20:20:11.834Z,5.90
2022-08-19T20:22:40.152Z,5.65
2022-08-19T20:25:08.893Z,5.65
2022-08-19T20:27:40.140Z,6.32
2022-08-19T20:30:13.801Z,5.60
2022-08-19T20:32:47.371Z,5.90
2022-08-19T20:35:18.468Z,5.70
2022-08-19T20:40:14.621Z,5.35
2022-08-19T20:42:43.378Z,6.00
2022-08-19T20:45:32.149Z,6.20
2022-08-19T20:48:04.437Z,6.15
2022-08-19T20:50:35.329Z,5.97
2022-08-19T20:53:12.800Z,5.85
2022-08-19T20:55:40.334Z,5.90
2022-08-19T20:58:10.186Z,5.63
2022-08-19T21:00:37.527Z,12.18
2022-08-19T21:03:05.233Z,11.90
2022-08-19T21:05:32.660Z,11.05
2022-08-19T21:07:59.940Z,8.65
2022-08-19T21:10:27.598Z,7.80
2022-08-19T21:12:55.566Z,7.22
2022-08-19T21:15:24.696Z,6.78
2022-08-19T21:17:52.042Z,6.75
2022-08-19T21:20:19.703Z,6.25
2022-08-19T21:22:46.851Z,6.70
2022-08-19T21:25:15.544Z,5.60
2022-08-19T21:27:43.034Z,6.32
2022-08-19T21:30:11.124Z,5.93
2022-08-19T21:32:38.364Z,5.15
2022-08-19T21:35:05.831Z,6.50
2022-08-19T21:37:36.688Z,6.18
2022-08-19T21:40:04.651Z,5.80
2022-08-19T21:42:32.031Z,5.93
2022-08-19T21:45:00.066Z,5.95
2022-08-19T21:47:27.353Z,5.95
2022-08-19T21:49:54.925Z,5.50
2022-08-19T21:52:26.430Z,6.28
2022-08-19T21:54:55.536Z,5.57
2022-08-19T21:57:24.640Z,6.25
2022-08-19T21:59:52.894Z,5.35
2022-08-19T22:02:21.298Z,6.00
2022-08-19T22:04:52.579Z,6.25
2022-08-19T22:07:21.465Z,6.43
2022-08-19T22:09:50.027Z,6.18
2022-08-19T22:12:32.479Z,5.43
2022-08-19T22:15:01.756Z,6.75
2022-08-19T22:17:31.582Z,5.85
2022-08-19T22:19:59.056Z,5.78
2022-08-19T22:22:29.760Z,6.10
2022-08-19T22:25:05.666Z,6.10
2022-08-19T22:27:33.011Z,5.95
2022-08-19T22:30:00.151Z,6.25
2022-08-19T22:32:28.654Z,5.72
2022-08-19T22:34:59.231Z,6.43
2022-08-19T22:37:27.551Z,5.97
2022-08-19T22:39:55.265Z,6.97
2022-08-19T22:42:23.007Z,5.75
2022-08-19T22:44:50.328Z,6.00
2022-08-19T22:47:18.248Z,5.70
2022-08-19T22:49:45.516Z,5.55
2022-08-19T22:52:17.739Z,6.53
2022-08-19T22:54:51.523Z,5.72
2022-08-19T22:57:20.013Z,6.93
2022-08-19T22:59:49.017Z,6.40
2022-08-19T23:02:24.706Z,7.57
2022-08-19T23:04:52.723Z,5.72
2022-08-19T23:07:23.521Z,6.45
2022-08-19T23:09:51.312Z,6.90
2022-08-19T23:12:28.299Z,6.72
2022-08-19T23:14:55.671Z,5.93
2022-08-19T23:17:23.356Z,6.25
2022-08-19T23:19:50.815Z,6.53
2022-08-19T23:22:18.606Z,6.30
2022-08-19T23:24:46.014Z,6.13
2022-08-19T23:27:31.953Z,6.15
2022-08-19T23:30:18.202Z,6.35
2022-08-19T23:32:46.446Z,6.43
2022-08-19T23:35:13.588Z,6.65
2022-08-19T23:37:40.947Z,7.03
2022-08-19T23:40:09.022Z,6.43
2022-08-19T23:42:41.580Z,5.75
2022-08-19T23:45:10.033Z,7.15
2022-08-19T23:47:37.954Z,6.07
2022-08-19T23:50:09.205Z,6.40
2022-08-19T23:52:53.236Z,6.50
2022-08-19T23:55:24.377Z,7.25
2022-08-19T23:57:52.038Z,6.90
